createdAt,value
2018-06-21T00:00:04.269Z,32.60
2018-06-21T00:02:33.466Z,29.77
2018-06-21T00:05:02.626Z,28.17
2018-06-21T00:07:31.770Z,29.90
2018-06-21T00:10:00.885Z,32.40
2018-06-21T00:12:30.075Z,32.23
2018-06-21T00:15:00.804Z,28.33
2018-06-21T00:17:30.006Z,28.53
2018-06-21T00:19:59.169Z,25.50
2018-06-21T00:22:28.333Z,25.97
2018-06-21T00:24:57.473Z,24.43
2018-06-21T00:27:26.649Z,25.10
2018-06-21T00:29:55.770Z,24.20
2018-06-21T00:32:24.911Z,23.47
2018-06-21T00:34:54.116Z,23.30
2018-06-21T00:37:23.213Z,24.83
2018-06-21T00:39:52.466Z,24.60
2018-06-21T00:42:21.590Z,22.63
2018-06-21T00:44:50.708Z,23.50
2018-06-21T00:47:19.826Z,23.70
2018-06-21T00:49:48.993Z,22.00
2018-06-21T00:52:18.118Z,22.27
2018-06-21T00:54:47.220Z,20.70
2018-06-21T00:57:16.327Z,23.62
2018-06-21T00:59:45.993Z,23.00
2018-06-21T01:02:15.205Z,23.23
2018-06-21T01:04:44.361Z,25.07
2018-06-21T01:07:13.498Z,24.60
2018-06-21T01:09:42.652Z,22.90
2018-06-21T01:12:12.009Z,23.73
2018-06-21T01:14:41.117Z,25.20
2018-06-21T01:17:10.265Z,25.17
2018-06-21T01:19:39.400Z,25.00
2018-06-21T01:22:08.587Z,26.07
2018-06-21T01:24:37.712Z,27.60
2018-06-21T01:27:06.974Z,27.30
2018-06-21T01:29:36.208Z,26.47
2018-06-21T01:32:05.414Z,27.63
2018-06-21T01:34:34.572Z,27.70
2018-06-21T01:37:03.809Z,28.47
2018-06-21T01:39:32.927Z,28.30
2018-06-21T01:42:02.100Z,29.93
2018-06-21T01:44:31.221Z,29.20
2018-06-21T01:47:00.344Z,27.83
2018-06-21T01:49:29.484Z,25.00
2018-06-21T01:51:58.628Z,24.20
2018-06-21T01:54:27.783Z,25.03
2018-06-21T01:56:56.955Z,24.33
2018-06-21T01:59:26.112Z,21.43
2018-06-21T02:01:55.324Z,21.93
2018-06-21T02:04:24.460Z,22.40
2018-06-21T02:06:53.631Z,23.20
2018-06-21T02:09:22.740Z,25.83
2018-06-21T02:11:51.852Z,26.90
2018-06-21T02:14:20.988Z,30.67
2018-06-21T02:16:50.144Z,29.20
2018-06-21T02:19:19.260Z,30.40
2018-06-21T02:21:48.385Z,26.50
2018-06-21T02:24:17.505Z,23.83
2018-06-21T02:26:46.731Z,24.60
2018-06-21T02:29:15.828Z,24.30
2018-06-21T02:31:45.425Z,25.12
2018-06-21T02:34:15.144Z,26.40
2018-06-21T02:36:44.310Z,25.53
2018-06-21T02:39:13.430Z,23.50
2018-06-21T02:41:42.580Z,25.23
2018-06-21T02:44:11.675Z,25.50
2018-06-21T02:46:40.838Z,22.02
2018-06-21T02:49:10.073Z,22.93
2018-06-21T02:51:39.284Z,22.23
2018-06-21T02:54:08.436Z,21.27
2018-06-21T02:56:37.583Z,21.63
2018-06-21T02:59:06.870Z,21.63
2018-06-21T03:01:36.015Z,20.50
2018-06-21T03:04:05.220Z,22.90
2018-06-21T03:06:34.440Z,21.65
2018-06-21T03:09:03.780Z,22.77
2018-06-21T03:11:32.906Z,22.43
2018-06-21T03:14:01.997Z,22.53
2018-06-21T03:16:31.206Z,21.57
2018-06-21T03:19:00.334Z,19.83
2018-06-21T03:21:29.600Z,22.60
2018-06-21T03:23:59.433Z,21.00
2018-06-21T03:26:28.625Z,21.67
2018-06-21T03:28:57.785Z,19.70
2018-06-21T03:31:26.986Z,20.27
2018-06-21T03:33:56.130Z,19.47
2018-06-21T03:36:25.242Z,18.67
2018-06-21T03:38:54.351Z,19.07
2018-06-21T03:41:23.538Z,19.85
2018-06-21T03:43:52.736Z,18.03
2018-06-21T03:46:21.863Z,19.33
2018-06-21T03:48:51.013Z,19.93
2018-06-21T03:51:20.137Z,18.87
2018-06-21T03:53:49.261Z,19.93
2018-06-21T03:56:18.408Z,20.40
2018-06-21T03:58:47.588Z,19.00
2018-06-21T04:01:16.755Z,20.43
2018-06-21T04:03:45.867Z,18.33
2018-06-21T04:06:14.997Z,17.73
2018-06-21T04:08:44.153Z,18.23
2018-06-21T04:11:13.288Z,17.60
2018-06-21T04:13:42.386Z,17.50
2018-06-21T04:16:11.527Z,18.97
2018-06-21T04:18:40.701Z,18.83
2018-06-21T04:21:09.987Z,18.73
2018-06-21T04:23:39.104Z,20.97
2018-06-21T04:26:08.222Z,20.90
2018-06-21T04:28:38.248Z,19.43
2018-06-21T04:31:07.963Z,17.70
2018-06-21T04:33:37.170Z,18.83
2018-06-21T04:36:06.288Z,20.43
2018-06-21T04:38:35.401Z,18.37
2018-06-21T04:41:04.541Z,18.37
2018-06-21T04:43:33.662Z,17.70
2018-06-21T04:46:02.821Z,17.03
2018-06-21T04:48:31.978Z,17.40
2018-06-21T04:51:01.091Z,18.15
2018-06-21T04:53:30.371Z,18.67
2018-06-21T04:55:59.524Z,17.93
2018-06-21T04:58:28.644Z,19.40
2018-06-21T05:00:57.804Z,18.43
2018-06-21T05:03:26.951Z,16.70
2018-06-21T05:05:56.711Z,17.67
2018-06-21T05:08:25.831Z,17.23
2018-06-21T05:10:55.027Z,18.70
2018-06-21T05:13:24.149Z,17.98
2018-06-21T05:15:53.321Z,17.80
2018-06-21T05:18:23.414Z,18.10
2018-06-21T05:20:53.529Z,17.57
2018-06-21T05:23:22.653Z,17.10
2018-06-21T05:25:51.873Z,16.70
2018-06-21T05:28:20.987Z,15.60
2018-06-21T05:30:50.175Z,15.00
2018-06-21T05:33:19.328Z,16.97
2018-06-21T05:35:48.455Z,15.90
2018-06-21T05:38:17.599Z,16.97
2018-06-21T05:40:46.729Z,15.53
2018-06-21T05:43:15.866Z,16.10
2018-06-21T05:45:45.003Z,15.80
2018-06-21T05:48:14.165Z,13.97
2018-06-21T05:50:43.454Z,13.70
2018-06-21T05:53:12.608Z,12.80
2018-06-21T05:55:41.782Z,14.23
2018-06-21T05:58:10.908Z,13.47
2018-06-21T06:00:40.041Z,13.80
2018-06-21T06:03:09.261Z,14.37
2018-06-21T06:05:38.382Z,11.70
2018-06-21T06:08:07.565Z,12.70
2018-06-21T06:10:36.706Z,12.40
2018-06-21T06:13:06.651Z,11.83
2018-06-21T06:15:36.029Z,11.17
2018-06-21T06:18:05.205Z,10.53
2018-06-21T06:20:34.356Z,11.43
2018-06-21T06:23:03.519Z,12.20
2018-06-21T06:25:32.867Z,11.27
2018-06-21T06:28:02.002Z,11.50
2018-06-21T06:30:31.142Z,11.30
2018-06-21T06:33:00.320Z,11.67
2018-06-21T06:35:30.898Z,10.77
2018-06-21T06:38:00.889Z,10.00
2018-06-21T06:40:30.132Z,10.43
2018-06-21T06:42:59.232Z,10.13
2018-06-21T06:45:28.356Z,9.93
2018-06-21T06:47:57.527Z,10.23
2018-06-21T06:50:26.669Z,12.20
2018-06-21T06:52:55.826Z,10.50
2018-06-21T06:55:25.016Z,10.77
2018-06-21T06:57:54.113Z,11.00
2018-06-21T07:00:23.236Z,12.17
2018-06-21T07:02:52.392Z,11.13
2018-06-21T07:05:21.534Z,10.30
2018-06-21T07:07:50.890Z,10.30
2018-06-21T07:10:20.041Z,10.97
2018-06-21T07:12:49.198Z,10.80
2018-06-21T07:15:18.313Z,10.95
2018-06-21T07:17:47.489Z,9.53
2018-06-21T07:20:16.688Z,10.00
2018-06-21T07:22:45.854Z,9.73
2018-06-21T07:25:14.970Z,8.53
2018-06-21T07:27:44.085Z,10.00
2018-06-21T07:30:13.237Z,9.30
2018-06-21T07:32:42.349Z,8.00
2018-06-21T07:35:11.648Z,8.70
2018-06-21T07:37:40.770Z,9.00
2018-06-21T07:40:10.489Z,8.60
2018-06-21T07:42:39.637Z,8.40
2018-06-21T07:45:08.843Z,8.10
2018-06-21T07:47:37.972Z,8.27
2018-06-21T07:50:07.006Z,8.70
2018-06-21T07:52:36.112Z,8.13
2018-06-21T07:55:05.319Z,7.50
2018-06-21T07:57:34.529Z,10.03
2018-06-21T08:00:03.718Z,9.83
2018-06-21T08:02:32.908Z,8.80
2018-06-21T08:05:02.079Z,8.17
2018-06-21T08:07:31.140Z,8.67
2018-06-21T08:10:00.281Z,10.60
2018-06-21T08:12:29.407Z,8.80
2018-06-21T08:14:58.547Z,9.23
2018-06-21T08:17:27.728Z,10.00
2018-06-21T08:19:56.874Z,9.20
2018-06-21T08:22:25.977Z,8.63
2018-06-21T08:24:55.203Z,9.53
2018-06-21T08:27:24.290Z,9.28
2018-06-21T08:29:53.414Z,8.80
2018-06-21T08:32:22.546Z,8.80
2018-06-21T08:34:51.715Z,8.00
2018-06-21T08:37:20.853Z,8.18
2018-06-21T08:39:49.995Z,7.87
2018-06-21T08:42:19.116Z,7.55
2018-06-21T08:44:48.271Z,7.27
2018-06-21T08:47:17.443Z,8.88
2018-06-21T08:49:46.697Z,7.40
2018-06-21T08:52:16.418Z,8.10
2018-06-21T08:54:45.618Z,7.13
2018-06-21T08:57:14.764Z,7.27
2018-06-21T08:59:44.176Z,6.63
2018-06-21T09:02:13.325Z,7.27
2018-06-21T09:04:42.481Z,8.17
2018-06-21T09:07:11.881Z,6.83
2018-06-21T09:09:41.111Z,6.30
2018-06-21T09:12:10.200Z,6.93
2018-06-21T09:14:39.333Z,6.30
2018-06-21T09:17:08.588Z,6.30
2018-06-21T09:19:37.887Z,6.27
2018-06-21T09:22:07.012Z,5.57
2018-06-21T09:24:36.167Z,5.97
2018-06-21T09:27:05.506Z,5.72
2018-06-21T09:29:35.178Z,6.20
2018-06-21T09:32:04.380Z,6.00
2018-06-21T09:34:33.501Z,6.67
2018-06-21T09:37:02.649Z,5.20
2018-06-21T09:39:36.932Z,5.80
2018-06-21T09:42:11.523Z,5.70
2018-06-21T09:45:00.334Z,5.63
2018-06-21T09:47:34.783Z,5.10
2018-06-21T09:50:03.915Z,4.80
2018-06-21T09:52:33.049Z,4.50
2018-06-21T09:55:02.204Z,4.20
2018-06-21T09:57:31.357Z,4.50
2018-06-21T10:00:00.445Z,5.00
2018-06-21T10:02:29.542Z,5.27
2018-06-21T10:04:58.799Z,5.63
2018-06-21T10:07:27.903Z,4.92
2018-06-21T10:09:57.139Z,4.60
2018-06-21T10:12:26.240Z,4.90
2018-06-21T10:14:55.354Z,4.93
2018-06-21T10:17:24.510Z,4.67
2018-06-21T10:19:53.681Z,5.70
2018-06-21T10:22:22.741Z,5.47
2018-06-21T10:24:51.848Z,4.60
2018-06-21T10:27:20.958Z,4.43
2018-06-21T10:29:50.072Z,5.20
2018-06-21T10:32:19.222Z,4.83
2018-06-21T10:34:48.359Z,4.73
2018-06-21T10:37:17.469Z,5.20
2018-06-21T10:39:46.583Z,4.73
2018-06-21T10:42:15.794Z,4.97
2018-06-21T10:44:44.872Z,5.73
2018-06-21T10:47:13.955Z,4.87
2018-06-21T10:49:43.086Z,4.70
2018-06-21T10:52:12.265Z,4.87
2018-06-21T10:54:41.362Z,4.17
2018-06-21T10:57:11.348Z,4.03
2018-06-21T10:59:40.320Z,4.50
2018-06-21T11:02:09.402Z,4.83
2018-06-21T11:04:38.554Z,5.23
2018-06-21T11:07:07.836Z,4.30
2018-06-21T11:09:36.976Z,4.28
2018-06-21T11:12:06.166Z,3.73
2018-06-21T11:14:35.348Z,3.67
2018-06-21T11:17:04.509Z,4.13
2018-06-21T11:19:33.637Z,4.83
2018-06-21T11:22:02.758Z,4.63
2018-06-21T11:24:31.889Z,4.07
2018-06-21T11:27:01.032Z,3.77
2018-06-21T11:29:30.242Z,4.37
2018-06-21T11:31:59.350Z,4.40
2018-06-21T11:34:28.471Z,4.50
2018-06-21T11:36:57.645Z,4.03
2018-06-21T11:39:26.761Z,4.15
2018-06-21T11:41:55.945Z,4.60
2018-06-21T11:44:25.069Z,3.93
2018-06-21T11:46:54.182Z,3.60
2018-06-21T11:49:23.326Z,4.20
2018-06-21T11:51:52.584Z,4.00
2018-06-21T11:54:21.706Z,4.58
2018-06-21T11:56:50.884Z,4.10
2018-06-21T11:59:19.987Z,3.90
2018-06-21T12:01:52.524Z,4.80
2018-06-21T12:04:21.691Z,4.00
2018-06-21T12:06:50.789Z,3.90
2018-06-21T12:09:19.942Z,3.92
2018-06-21T12:11:49.026Z,3.70
2018-06-21T12:14:18.128Z,4.40
2018-06-21T12:16:47.263Z,3.93
2018-06-21T12:19:16.384Z,3.72
2018-06-21T12:21:45.490Z,3.33
2018-06-21T12:24:14.664Z,3.70
2018-06-21T12:26:43.758Z,3.60
2018-06-21T12:29:12.838Z,3.73
2018-06-21T12:31:41.971Z,3.77
2018-06-21T12:34:11.079Z,3.23
2018-06-21T12:36:40.230Z,3.40
2018-06-21T12:39:09.548Z,3.45
2018-06-21T12:41:38.729Z,3.43
2018-06-21T12:44:07.839Z,3.60
2018-06-21T12:46:37.044Z,4.30
2018-06-21T12:49:07.567Z,2.90
2018-06-21T12:51:36.678Z,3.12
2018-06-21T12:54:05.809Z,3.97
2018-06-21T12:56:34.968Z,3.47
2018-06-21T12:59:04.109Z,2.93
2018-06-21T13:01:33.242Z,2.87
2018-06-21T13:04:02.374Z,3.43
2018-06-21T13:06:31.484Z,2.80
2018-06-21T13:09:11.795Z,2.37
2018-06-21T13:12:58.812Z,2.47
2018-06-21T13:15:27.966Z,2.40
2018-06-21T13:17:57.087Z,3.00
2018-06-21T13:20:26.217Z,2.83
2018-06-21T13:22:55.944Z,2.93
2018-06-21T13:25:25.078Z,2.80
2018-06-21T13:27:54.171Z,3.07
2018-06-21T13:30:23.313Z,2.30
2018-06-21T13:32:52.658Z,2.97
2018-06-21T13:35:21.785Z,2.30
2018-06-21T13:37:50.949Z,2.90
2018-06-21T13:40:20.120Z,2.80
2018-06-21T13:42:49.846Z,2.40
2018-06-21T13:45:19.000Z,2.45
2018-06-21T13:47:48.143Z,2.60
2018-06-21T13:50:17.232Z,2.40
2018-06-21T13:52:46.386Z,2.63
2018-06-21T13:55:15.484Z,2.35
2018-06-21T13:57:44.609Z,2.33
2018-06-21T14:00:13.747Z,2.07
2018-06-21T14:02:42.955Z,2.37
2018-06-21T14:05:12.148Z,2.03
2018-06-21T14:07:41.390Z,1.62
2018-06-21T14:10:10.446Z,2.07
2018-06-21T14:12:39.666Z,2.03
2018-06-21T14:15:08.897Z,1.57
2018-06-21T14:17:37.987Z,2.70
2018-06-21T14:20:06.674Z,2.37
2018-06-21T14:22:35.798Z,2.83
2018-06-21T14:25:05.472Z,1.90
2018-06-21T14:27:34.565Z,2.37
2018-06-21T14:30:03.821Z,1.70
2018-06-21T14:32:32.924Z,1.77
2018-06-21T14:35:02.036Z,1.77
2018-06-21T14:37:31.200Z,1.90
2018-06-21T14:40:00.325Z,2.17
2018-06-21T14:42:29.543Z,1.77
2018-06-21T14:44:58.648Z,1.90
2018-06-21T14:47:27.833Z,2.08
2018-06-21T14:49:56.937Z,2.00
2018-06-21T14:52:26.117Z,1.72
2018-06-21T14:54:55.230Z,2.10
2018-06-21T14:57:24.358Z,1.87
2018-06-21T14:59:53.483Z,2.10
2018-06-21T15:02:22.561Z,2.90
2018-06-21T15:04:51.645Z,2.83
2018-06-21T15:07:20.793Z,2.47
2018-06-21T15:09:49.922Z,1.97
2018-06-21T15:12:19.094Z,3.20
2018-06-21T15:14:48.229Z,2.33
2018-06-21T15:17:17.373Z,2.62
2018-06-21T15:19:46.429Z,2.20
2018-06-21T15:22:15.574Z,3.00
2018-06-21T15:24:44.670Z,2.60
2018-06-21T15:27:13.793Z,2.70
2018-06-21T15:29:43.794Z,2.77
2018-06-21T15:32:12.905Z,2.40
2018-06-21T15:34:42.045Z,2.93
2018-06-21T15:37:11.461Z,2.60
2018-06-21T15:39:40.591Z,2.10
2018-06-21T15:42:09.697Z,2.10
2018-06-21T15:44:38.801Z,2.20
2018-06-21T15:47:08.197Z,2.10
2018-06-21T15:49:37.312Z,2.30
2018-06-21T15:52:06.483Z,2.87
2018-06-21T15:54:35.683Z,2.53
2018-06-21T15:57:04.923Z,1.77
2018-06-21T15:59:34.051Z,1.73
2018-06-21T16:02:03.178Z,2.03
2018-06-21T16:04:32.782Z,2.93
2018-06-21T16:07:01.961Z,2.13
2018-06-21T16:09:31.068Z,2.07
2018-06-21T16:12:00.161Z,2.37
2018-06-21T16:14:29.306Z,1.90
2018-06-21T16:16:58.416Z,3.03
2018-06-21T16:19:27.552Z,2.42
2018-06-21T16:21:56.664Z,2.43
2018-06-21T16:24:25.781Z,2.37
2018-06-21T16:26:54.899Z,1.93
2018-06-21T16:29:24.076Z,2.75
2018-06-21T16:31:53.180Z,2.60
2018-06-21T16:34:22.380Z,2.83
2018-06-21T16:36:51.533Z,2.57
2018-06-21T16:39:20.640Z,2.50
2018-06-21T16:41:49.770Z,1.97
2018-06-21T16:44:18.933Z,2.50
2018-06-21T16:46:48.096Z,2.70
2018-06-21T16:49:17.200Z,2.52
2018-06-21T16:51:46.616Z,2.60
2018-06-21T16:54:15.715Z,3.50
2018-06-21T16:56:44.962Z,3.53
2018-06-21T16:59:14.074Z,2.80
2018-06-21T17:01:43.180Z,2.80
2018-06-21T17:04:12.296Z,2.83
2018-06-21T17:06:41.457Z,2.57
2018-06-21T17:28:43.472Z,2.80
2018-06-21T17:31:12.577Z,2.70
2018-06-21T17:33:41.686Z,3.30
2018-06-21T17:36:10.909Z,3.27
2018-06-21T17:38:39.974Z,3.30
2018-06-21T17:41:09.318Z,3.40
2018-06-21T17:43:38.550Z,2.90
2018-06-21T17:46:07.713Z,3.33
2018-06-21T17:48:36.801Z,3.50
2018-06-21T17:51:06.116Z,3.73
2018-06-21T17:53:35.247Z,3.63
2018-06-21T17:56:04.381Z,3.47
2018-06-21T17:58:33.535Z,3.90
2018-06-21T18:01:04.291Z,3.20
2018-06-21T18:03:33.448Z,3.43
2018-06-21T18:06:02.593Z,3.60
2018-06-21T18:08:31.753Z,3.23
2018-06-21T18:11:00.950Z,3.80
2018-06-21T18:13:30.096Z,3.97
2018-06-21T18:15:59.193Z,3.43
2018-06-21T18:18:28.331Z,3.37
2018-06-21T18:20:57.484Z,3.20
2018-06-21T18:23:26.604Z,4.22
2018-06-21T18:25:55.718Z,4.40
2018-06-21T18:28:24.861Z,4.00
2018-06-21T18:30:54.203Z,4.10
2018-06-21T18:33:23.344Z,3.83
2018-06-21T18:35:52.519Z,3.30
2018-06-21T18:38:21.745Z,4.13
2018-06-21T18:40:50.865Z,3.43
2018-06-21T18:43:20.021Z,4.50
2018-06-21T18:45:49.249Z,3.90
2018-06-21T18:48:18.391Z,4.07
2018-06-21T18:50:47.604Z,3.60
2018-06-21T18:53:16.698Z,3.05
2018-06-21T18:55:45.900Z,3.20
2018-06-21T18:58:15.072Z,4.07
2018-06-21T19:00:44.848Z,3.30
2018-06-21T19:03:13.960Z,3.43
2018-06-21T19:05:43.130Z,3.53
2018-06-21T19:08:18.078Z,2.63
2018-06-21T19:10:52.658Z,3.17
2018-06-21T19:13:21.667Z,3.00
2018-06-21T19:15:50.820Z,2.53
2018-06-21T19:18:19.981Z,2.90
2018-06-21T19:20:49.144Z,2.87
2018-06-21T19:23:18.238Z,2.58
2018-06-21T19:25:47.536Z,2.50
2018-06-21T19:28:16.647Z,3.10
2018-06-21T19:30:45.772Z,2.83
2018-06-21T19:33:14.920Z,3.10
2018-06-21T19:35:44.031Z,3.50
2018-06-21T19:38:13.129Z,3.80
2018-06-21T19:40:43.646Z,2.93
2018-06-21T19:43:12.831Z,2.60
2018-06-21T19:45:41.868Z,2.80
2018-06-21T19:48:11.135Z,3.23
2018-06-21T19:50:40.355Z,2.70
2018-06-21T19:53:09.705Z,2.87
2018-06-21T19:55:38.974Z,3.23
2018-06-21T19:58:08.099Z,3.95
2018-06-21T20:00:37.383Z,3.93
2018-06-21T20:03:06.695Z,3.60
2018-06-21T20:05:35.810Z,3.23
2018-06-21T20:08:05.280Z,4.40
2018-06-21T20:10:34.439Z,4.30
2018-06-21T20:13:03.565Z,4.60
2018-06-21T20:15:43.249Z,3.53
2018-06-21T20:18:12.369Z,4.10
2018-06-21T20:20:41.467Z,4.47
2018-06-21T20:23:10.610Z,4.33
2018-06-21T20:25:39.783Z,4.77
2018-06-21T20:28:08.944Z,4.33
2018-06-21T20:30:38.074Z,4.93
2018-06-21T20:33:07.427Z,6.73
2018-06-21T20:35:36.587Z,6.07
2018-06-21T20:38:05.725Z,6.10
2018-06-21T20:40:34.842Z,4.97
2018-06-21T20:43:03.964Z,4.40
2018-06-21T20:45:33.129Z,5.30
2018-06-21T20:48:02.345Z,5.50
2018-06-21T20:50:31.496Z,5.93
2018-06-21T20:53:00.611Z,4.40
2018-06-21T20:55:29.780Z,4.00
2018-06-21T20:57:58.920Z,4.93
2018-06-21T21:00:28.057Z,4.53
2018-06-21T21:02:57.209Z,5.60
2018-06-21T21:05:26.426Z,5.42
2018-06-21T21:07:55.692Z,4.20
2018-06-21T21:10:24.795Z,4.20
2018-06-21T21:12:53.933Z,5.00
2018-06-21T21:15:23.095Z,5.17
2018-06-21T21:17:52.234Z,5.20
2018-06-21T21:20:21.364Z,4.63
2018-06-21T21:22:50.477Z,4.90
2018-06-21T21:25:19.595Z,4.60
2018-06-21T21:27:48.716Z,4.73
2018-06-21T21:30:17.879Z,4.50
2018-06-21T21:32:47.534Z,4.57
2018-06-21T21:35:16.634Z,5.67
2018-06-21T21:37:45.789Z,4.40
2018-06-21T21:40:14.903Z,4.60
2018-06-21T21:42:44.018Z,3.73
2018-06-21T21:45:13.158Z,4.33
2018-06-21T21:47:42.264Z,4.67
2018-06-21T21:50:11.397Z,3.63
2018-06-21T21:52:40.555Z,3.60
2018-06-21T21:55:09.677Z,5.20
2018-06-21T21:57:38.789Z,4.10
2018-06-21T22:01:12.046Z,4.10
2018-06-21T22:03:41.147Z,3.80
2018-06-21T22:06:10.284Z,4.93
2018-06-21T22:08:39.421Z,4.20
2018-06-21T22:11:08.795Z,5.70
2018-06-21T22:13:37.886Z,5.60
2018-06-21T22:16:07.026Z,6.77
2018-06-21T22:18:36.166Z,6.20
2018-06-21T22:21:05.344Z,6.60
2018-06-21T22:23:34.468Z,5.80
2018-06-21T22:26:03.593Z,4.80
2018-06-21T22:28:32.706Z,3.97
2018-06-21T22:31:01.866Z,4.80
2018-06-21T22:33:30.974Z,3.97
2018-06-21T22:36:00.093Z,3.63
2018-06-21T22:38:29.245Z,3.80
2018-06-21T22:40:58.364Z,4.12
2018-06-21T22:43:39.061Z,4.10
2018-06-21T22:46:08.850Z,4.00
2018-06-21T22:48:38.088Z,4.00
2018-06-21T22:51:08.309Z,4.37
2018-06-21T22:53:37.489Z,3.60
2018-06-21T22:56:06.599Z,5.03
2018-06-21T22:58:35.750Z,4.00
2018-06-21T23:01:04.829Z,3.67
2018-06-21T23:03:33.928Z,4.20
2018-06-21T23:06:03.062Z,4.23
2018-06-21T23:08:32.177Z,4.10
2018-06-21T23:11:01.254Z,3.90
2018-06-21T23:13:30.421Z,4.17
2018-06-21T23:15:59.559Z,4.90
2018-06-21T23:18:39.937Z,3.77
2018-06-21T23:21:09.194Z,3.87
2018-06-21T23:23:38.314Z,4.30
2018-06-21T23:26:07.462Z,4.13
2018-06-21T23:28:36.552Z,4.50
2018-06-21T23:31:05.858Z,4.33
2018-06-21T23:33:35.004Z,4.80
2018-06-21T23:36:04.347Z,4.50
2018-06-21T23:38:33.530Z,4.03
2018-06-21T23:41:02.670Z,4.77
2018-06-21T23:43:31.751Z,4.80
2018-06-21T23:46:00.831Z,5.20
2018-06-21T23:48:29.997Z,5.00
2018-06-21T23:50:59.086Z,5.25
2018-06-21T23:53:28.274Z,5.40
2018-06-21T23:55:57.408Z,6.15
2018-06-21T23:58:26.525Z,5.83
